createdAt,value
2018-12-11T00:01:00.178Z,5.60
2018-12-11T00:03:27.726Z,5.60
2018-12-11T00:05:55.323Z,5.50
2018-12-11T00:08:22.871Z,5.50
2018-12-11T00:10:50.403Z,5.50
2018-12-11T00:13:17.975Z,5.50
2018-12-11T00:15:45.525Z,5.50
2018-12-11T00:18:13.058Z,5.50
2018-12-11T00:20:40.634Z,5.50
2018-12-11T00:23:08.166Z,5.50
2018-12-11T00:25:35.698Z,5.50
2018-12-11T00:28:03.271Z,5.50
2018-12-11T00:30:30.804Z,5.50
2018-12-11T00:32:58.334Z,5.50
2018-12-11T00:35:25.907Z,5.40
2018-12-11T00:37:53.439Z,5.40
2018-12-11T00:40:20.983Z,5.40
2018-12-11T00:42:48.538Z,5.50
2018-12-11T00:45:16.142Z,5.50
2018-12-11T00:47:43.753Z,5.50
2018-12-11T00:50:11.342Z,5.50
2018-12-11T00:52:38.946Z,5.50
2018-12-11T00:55:06.529Z,5.50
2018-12-11T00:57:34.070Z,5.50
2018-12-11T01:00:01.714Z,5.50
2018-12-11T01:02:29.247Z,5.50
2018-12-11T01:04:56.792Z,5.50
2018-12-11T01:07:24.361Z,5.60
2018-12-11T01:09:52.671Z,5.50
2018-12-11T01:12:20.202Z,5.60
2018-12-11T01:14:47.766Z,5.60
2018-12-11T01:17:15.293Z,5.60
2018-12-11T01:19:42.868Z,5.60
2018-12-11T01:22:10.404Z,5.60
2018-12-11T01:24:37.963Z,5.60
2018-12-11T01:27:05.601Z,5.60
2018-12-11T01:29:33.139Z,5.60
2018-12-11T01:32:00.682Z,5.50
2018-12-11T01:34:28.258Z,5.60
2018-12-11T01:36:55.786Z,5.50
2018-12-11T01:39:23.310Z,5.50
2018-12-11T01:41:50.886Z,5.50
2018-12-11T01:44:18.420Z,5.40
2018-12-11T01:46:46.034Z,5.40
2018-12-11T01:49:13.618Z,5.40
2018-12-11T01:51:41.142Z,5.40
2018-12-11T01:54:08.665Z,5.40
2018-12-11T01:56:36.247Z,5.30
2018-12-11T01:59:03.775Z,5.30
2018-12-11T02:01:31.307Z,5.30
2018-12-11T02:03:58.889Z,5.20
2018-12-11T02:06:26.416Z,5.20
2018-12-11T02:08:54.190Z,5.20
2018-12-11T02:11:21.827Z,5.20
2018-12-11T02:13:49.355Z,5.10
2018-12-11T02:16:16.949Z,5.10
2018-12-11T02:18:44.526Z,5.10
2018-12-11T02:21:12.352Z,5.10
2018-12-11T02:23:40.014Z,5.10
2018-12-11T02:26:07.601Z,5.10
2018-12-11T02:28:35.132Z,5.10
2018-12-11T02:31:02.728Z,5.00
2018-12-11T02:33:30.303Z,5.00
2018-12-11T02:35:57.839Z,5.00
2018-12-11T02:38:25.378Z,5.00
2018-12-11T02:40:54.707Z,5.00
2018-12-11T02:43:23.171Z,5.00
2018-12-11T02:45:50.712Z,4.90
2018-12-11T02:48:18.290Z,5.00
2018-12-11T02:50:45.833Z,5.00
2018-12-11T02:53:13.371Z,5.00
2018-12-11T02:55:40.940Z,5.00
2018-12-11T02:58:08.478Z,4.90
2018-12-11T03:00:36.158Z,4.90
2018-12-11T03:03:18.375Z,4.90
2018-12-11T03:05:45.907Z,4.90
2018-12-11T03:08:13.440Z,4.90
2018-12-11T03:10:41.014Z,4.90
2018-12-11T03:13:08.567Z,4.90
2018-12-11T03:15:36.095Z,4.90
2018-12-11T03:18:03.731Z,4.80
2018-12-11T03:20:31.265Z,4.80
2018-12-11T03:22:58.804Z,4.80
2018-12-11T03:25:26.389Z,4.80
2018-12-11T03:27:54.837Z,4.80
2018-12-11T03:30:22.371Z,4.80
2018-12-11T03:32:49.982Z,4.70
2018-12-11T03:35:17.525Z,4.70
2018-12-11T03:37:45.049Z,4.70
2018-12-11T03:40:12.685Z,4.70
2018-12-11T03:42:40.211Z,4.70
2018-12-11T03:45:07.801Z,4.70
2018-12-11T03:47:35.392Z,4.70
2018-12-11T03:50:03.461Z,4.70
2018-12-11T03:52:30.986Z,4.70
2018-12-11T03:54:58.558Z,4.70
2018-12-11T03:57:26.090Z,4.70
2018-12-11T03:59:53.625Z,4.60
2018-12-11T04:02:21.202Z,4.60
2018-12-11T04:04:48.737Z,4.60
2018-12-11T04:07:16.602Z,4.60
2018-12-11T04:09:44.195Z,4.60
2018-12-11T04:12:11.799Z,4.60
2018-12-11T04:14:39.406Z,4.50
2018-12-11T04:17:07.030Z,4.50
2018-12-11T04:19:34.567Z,4.50
2018-12-11T04:22:02.139Z,4.50
2018-12-11T04:24:29.685Z,4.30
2018-12-11T04:26:57.268Z,4.50
2018-12-11T04:29:24.800Z,4.50
2018-12-11T04:31:52.589Z,4.50
2018-12-11T04:34:20.158Z,4.40
2018-12-11T04:36:47.708Z,4.40
2018-12-11T04:39:15.245Z,4.40
2018-12-11T04:41:42.805Z,4.40
2018-12-11T04:44:10.335Z,4.40
2018-12-11T04:46:37.882Z,4.40
2018-12-11T04:49:05.454Z,4.40
2018-12-11T04:51:32.999Z,4.40
2018-12-11T04:54:00.583Z,4.40
2018-12-11T04:56:28.110Z,4.40
2018-12-11T04:58:56.615Z,4.30
2018-12-11T05:01:24.193Z,4.30
2018-12-11T05:03:51.722Z,4.30
2018-12-11T05:06:19.263Z,4.30
2018-12-11T05:08:46.823Z,4.30
2018-12-11T05:11:14.402Z,4.30
2018-12-11T05:13:41.934Z,4.30
2018-12-11T05:16:09.470Z,4.20
2018-12-11T05:18:37.033Z,4.20
2018-12-11T05:21:04.571Z,4.20
2018-12-11T05:23:32.127Z,4.20
2018-12-11T05:25:59.702Z,4.20
2018-12-11T05:28:27.230Z,4.20
2018-12-11T05:30:54.773Z,4.30
2018-12-11T05:33:22.350Z,4.40
2018-12-11T05:35:49.883Z,4.50
2018-12-11T05:38:17.451Z,4.50
2018-12-11T05:40:45.038Z,4.40
2018-12-11T05:43:12.574Z,4.30
2018-12-11T05:45:41.022Z,4.30
2018-12-11T05:48:08.618Z,4.20
2018-12-11T05:50:36.241Z,4.20
2018-12-11T05:53:03.765Z,4.10
2018-12-11T05:55:31.337Z,4.10
2018-12-11T05:57:58.870Z,4.10
2018-12-11T06:00:27.350Z,4.00
2018-12-11T06:02:54.937Z,4.00
2018-12-11T06:05:22.472Z,4.00
2018-12-11T06:07:50.495Z,4.00
2018-12-11T06:10:18.184Z,4.00
2018-12-11T06:12:45.721Z,4.00
2018-12-11T06:15:13.262Z,3.90
2018-12-11T06:17:40.846Z,3.90
2018-12-11T06:20:08.517Z,3.90
2018-12-11T06:22:36.172Z,3.90
2018-12-11T06:25:04.042Z,3.90
2018-12-11T06:27:31.882Z,3.90
2018-12-11T06:29:59.465Z,3.90
2018-12-11T06:32:28.023Z,3.90
2018-12-11T06:34:55.549Z,3.80
2018-12-11T06:37:23.074Z,3.80
2018-12-11T06:39:50.631Z,3.80
2018-12-11T06:42:18.162Z,3.80
2018-12-11T06:44:45.738Z,3.80
2018-12-11T06:47:13.270Z,3.80
2018-12-11T06:49:40.815Z,3.80
2018-12-11T06:52:08.393Z,3.80
2018-12-11T06:54:36.043Z,3.80
2018-12-11T06:57:03.642Z,3.80
2018-12-11T06:59:31.212Z,3.70
2018-12-11T07:01:58.747Z,3.70
2018-12-11T07:04:26.277Z,3.70
2018-12-11T07:06:53.854Z,3.70
2018-12-11T07:09:21.381Z,3.70
2018-12-11T07:11:48.970Z,3.70
2018-12-11T07:14:16.550Z,3.70
2018-12-11T07:16:44.117Z,3.70
2018-12-11T07:19:11.742Z,3.70
2018-12-11T07:21:39.329Z,3.70
2018-12-11T07:24:06.876Z,3.70
2018-12-11T07:26:34.410Z,3.70
2018-12-11T07:29:01.997Z,3.70
2018-12-11T07:31:29.532Z,3.70
2018-12-11T07:33:57.058Z,3.70
2018-12-11T07:36:24.706Z,3.70
2018-12-11T07:38:52.234Z,3.70
2018-12-11T07:41:19.765Z,3.70
2018-12-11T07:43:47.339Z,3.70
2018-12-11T07:46:15.024Z,3.70
2018-12-11T07:48:42.574Z,3.70
2018-12-11T07:51:10.158Z,3.70
2018-12-11T07:53:37.698Z,3.70
2018-12-11T07:56:05.230Z,3.70
2018-12-11T07:58:32.798Z,3.70
2018-12-11T08:01:00.321Z,3.70
2018-12-11T08:03:28.868Z,3.70
2018-12-11T08:05:56.437Z,3.70
2018-12-11T08:08:23.973Z,3.70
2018-12-11T08:10:51.542Z,3.70
2018-12-11T08:13:19.069Z,3.70
2018-12-11T08:15:46.595Z,3.70
2018-12-11T08:18:14.167Z,3.70
2018-12-11T08:20:41.701Z,3.80
2018-12-11T08:23:09.231Z,3.80
2018-12-11T08:25:36.814Z,3.80
2018-12-11T08:28:04.340Z,3.80
2018-12-11T08:30:31.875Z,3.80
2018-12-11T08:32:59.451Z,3.90
2018-12-11T08:35:27.122Z,3.90
2018-12-11T08:37:54.646Z,3.90
2018-12-11T08:40:22.218Z,3.90
2018-12-11T08:42:49.746Z,3.90
2018-12-11T08:45:17.899Z,3.90
2018-12-11T08:47:45.476Z,4.00
2018-12-11T08:50:13.010Z,4.00
2018-12-11T08:52:40.546Z,4.00
2018-12-11T08:55:08.198Z,4.00
2018-12-11T08:57:35.738Z,4.00
2018-12-11T09:00:05.302Z,4.10
2018-12-11T09:02:32.866Z,4.10
2018-12-11T09:05:00.398Z,4.10
2018-12-11T09:07:28.434Z,4.20
2018-12-11T09:09:56.010Z,4.20
2018-12-11T09:12:23.553Z,4.20
2018-12-11T09:14:51.073Z,4.30
2018-12-11T09:17:18.659Z,4.40
2018-12-11T09:19:46.192Z,4.40
2018-12-11T09:22:13.742Z,4.50
2018-12-11T09:24:41.302Z,4.50
2018-12-11T09:27:08.877Z,4.60
2018-12-11T09:29:36.405Z,4.90
2018-12-11T09:32:03.940Z,5.10
2018-12-11T09:34:31.511Z,5.40
2018-12-11T09:36:59.958Z,5.70
2018-12-11T09:39:27.489Z,5.90
2018-12-11T09:41:55.063Z,6.10
2018-12-11T09:44:22.594Z,6.30
2018-12-11T09:46:50.117Z,6.40
2018-12-11T09:49:17.690Z,6.50
2018-12-11T09:51:45.226Z,6.70
2018-12-11T09:54:12.755Z,6.90
2018-12-11T09:56:40.370Z,7.00
2018-12-11T09:59:07.907Z,7.20
2018-12-11T10:01:35.438Z,7.30
2018-12-11T10:04:03.007Z,7.30
2018-12-11T10:06:30.560Z,7.30
2018-12-11T10:09:00.053Z,7.40
2018-12-11T10:11:27.626Z,7.40
2018-12-11T10:13:55.150Z,7.40
2018-12-11T10:16:22.692Z,7.50
2018-12-11T10:18:50.266Z,7.60
2018-12-11T10:21:17.786Z,7.60
2018-12-11T10:23:45.586Z,7.60
2018-12-11T10:26:13.167Z,7.60
2018-12-11T10:28:40.697Z,7.70
2018-12-11T10:31:08.243Z,7.70
2018-12-11T10:33:35.821Z,7.80
2018-12-11T10:36:03.430Z,7.70
2018-12-11T10:38:30.966Z,7.60
2018-12-11T10:40:58.539Z,7.60
2018-12-11T10:43:26.070Z,7.70
2018-12-11T10:45:53.607Z,7.80
2018-12-11T10:48:21.187Z,7.70
2018-12-11T10:50:48.787Z,7.60
2018-12-11T10:53:16.331Z,7.50
2018-12-11T10:55:43.924Z,7.60
2018-12-11T10:58:11.648Z,7.60
2018-12-11T11:00:44.068Z,7.70
2018-12-11T11:03:11.794Z,7.80
2018-12-11T11:05:39.335Z,7.80
2018-12-11T11:08:07.010Z,7.80
2018-12-11T11:10:34.557Z,7.70
2018-12-11T11:13:02.091Z,7.80
2018-12-11T11:15:29.715Z,7.70
2018-12-11T11:17:57.338Z,7.60
2018-12-11T11:20:24.944Z,7.40
2018-12-11T11:22:52.530Z,7.30
2018-12-11T11:25:20.060Z,7.10
2018-12-11T11:27:47.596Z,6.90
2018-12-11T11:30:15.227Z,6.80
2018-12-11T11:32:42.767Z,6.70
2018-12-11T11:35:10.314Z,6.70
2018-12-11T11:37:37.903Z,6.70
2018-12-11T11:40:05.659Z,6.70
2018-12-11T11:42:33.477Z,6.70
2018-12-11T11:45:02.054Z,6.70
2018-12-11T11:47:29.585Z,6.70
2018-12-11T11:49:57.130Z,6.60
2018-12-11T11:52:24.711Z,6.60
2018-12-11T11:54:52.247Z,6.60
2018-12-11T11:57:19.783Z,6.50
2018-12-11T11:59:47.357Z,6.50
2018-12-11T12:02:14.960Z,6.40
2018-12-11T12:04:42.498Z,6.30
2018-12-11T12:07:10.065Z,6.30
2018-12-11T12:09:37.612Z,6.30
2018-12-11T12:12:05.282Z,6.30
2018-12-11T12:14:33.623Z,6.30
2018-12-11T12:17:01.167Z,6.30
2018-12-11T12:19:28.728Z,6.30
2018-12-11T12:21:56.311Z,6.30
2018-12-11T12:24:23.863Z,6.20
2018-12-11T12:26:51.397Z,6.20
2018-12-11T12:29:18.986Z,6.20
2018-12-11T12:31:46.515Z,6.20
2018-12-11T12:34:14.047Z,6.20
2018-12-11T12:36:41.626Z,6.20
2018-12-11T12:39:09.226Z,6.30
2018-12-11T12:41:36.818Z,6.20
2018-12-11T12:44:04.385Z,6.20
2018-12-11T12:46:31.918Z,6.10
2018-12-11T12:48:59.458Z,6.30
2018-12-11T12:51:27.025Z,6.30
2018-12-11T12:53:54.555Z,6.30
2018-12-11T12:56:22.090Z,6.30
2018-12-11T12:58:49.667Z,6.20
2018-12-11T13:01:17.202Z,6.10
2018-12-11T13:03:45.001Z,6.10
2018-12-11T13:06:12.647Z,6.00
2018-12-11T13:08:40.172Z,6.00
2018-12-11T13:11:07.811Z,5.90
2018-12-11T13:13:35.441Z,5.90
2018-12-11T13:16:03.956Z,6.00
2018-12-11T13:18:31.492Z,6.10
2018-12-11T13:20:59.074Z,6.20
2018-12-11T13:23:26.609Z,6.20
2018-12-11T13:25:54.142Z,6.20
2018-12-11T13:28:22.734Z,6.10
2018-12-11T13:30:50.475Z,6.00
2018-12-11T13:33:18.023Z,6.00
2018-12-11T13:35:45.668Z,5.90
2018-12-11T13:38:13.196Z,5.80
2018-12-11T13:40:40.911Z,5.80
2018-12-11T13:43:08.651Z,5.80
2018-12-11T13:45:36.200Z,5.80
2018-12-11T13:48:04.214Z,5.80
2018-12-11T13:50:31.807Z,5.80
2018-12-11T13:52:59.330Z,5.80
2018-12-11T13:55:26.871Z,5.80
2018-12-11T13:57:54.450Z,5.80
2018-12-11T14:00:21.992Z,5.80
2018-12-11T14:02:49.537Z,5.70
2018-12-11T14:05:17.103Z,5.70
2018-12-11T14:07:44.631Z,5.70
2018-12-11T14:10:12.178Z,5.60
2018-12-11T14:12:39.755Z,5.60
2018-12-11T14:15:07.929Z,5.60
2018-12-11T14:17:35.887Z,5.60
2018-12-11T14:20:05.202Z,5.60
2018-12-11T14:22:32.730Z,5.60
2018-12-11T14:25:00.460Z,5.60
2018-12-11T14:27:28.091Z,5.60
2018-12-11T14:29:55.632Z,5.60
2018-12-11T14:32:23.158Z,5.60
2018-12-11T14:34:50.739Z,5.60
2018-12-11T14:37:18.269Z,5.60
2018-12-11T14:39:45.820Z,5.60
2018-12-11T14:42:13.685Z,5.60
2018-12-11T14:44:41.680Z,5.60
2018-12-11T14:47:09.553Z,5.60
2018-12-11T14:49:37.208Z,5.60
2018-12-11T14:52:05.137Z,5.60
2018-12-11T14:54:32.820Z,5.60
2018-12-11T14:57:00.476Z,5.60
2018-12-11T15:02:00.086Z,5.60
2018-12-11T15:04:27.627Z,5.60
2018-12-11T15:06:55.446Z,5.60
2018-12-11T15:09:28.837Z,5.60
2018-12-11T15:11:56.368Z,5.60
2018-12-11T15:14:23.897Z,5.60
2018-12-11T15:16:51.498Z,5.60
2018-12-11T15:19:19.097Z,5.60
2018-12-11T15:21:46.657Z,5.60
2018-12-11T15:24:14.373Z,5.70
2018-12-11T15:26:41.962Z,5.60
2018-12-11T15:29:09.507Z,5.50
2018-12-11T15:31:37.078Z,5.50
2018-12-11T15:34:05.246Z,5.50
2018-12-11T15:36:32.805Z,5.50
2018-12-11T15:39:00.465Z,5.50
2018-12-11T15:41:28.214Z,5.50
2018-12-11T15:43:55.783Z,5.50
2018-12-11T15:46:23.655Z,5.50
2018-12-11T15:48:51.320Z,5.50
2018-12-11T15:51:18.934Z,5.50
2018-12-11T15:53:46.511Z,5.50
2018-12-11T15:56:14.181Z,5.50
2018-12-11T15:58:41.730Z,5.50
2018-12-11T16:01:09.471Z,5.50
2018-12-11T16:03:37.031Z,5.50
2018-12-11T16:06:05.566Z,5.50
2018-12-11T16:08:33.346Z,5.50
2018-12-11T16:11:01.085Z,5.50
2018-12-11T16:13:28.627Z,5.50
2018-12-11T16:15:56.199Z,5.50
2018-12-11T16:18:23.990Z,5.50
2018-12-11T16:20:51.572Z,5.50
2018-12-11T16:23:19.207Z,5.40
2018-12-11T16:25:46.859Z,5.50
2018-12-11T16:28:14.510Z,5.60
2018-12-11T16:30:42.195Z,5.40
2018-12-11T16:33:09.839Z,5.40
2018-12-11T16:35:37.363Z,5.40
2018-12-11T16:38:05.632Z,5.40
2018-12-11T16:40:33.163Z,5.40
2018-12-11T16:43:00.829Z,5.40
2018-12-11T16:45:28.455Z,5.30
2018-12-11T16:47:56.008Z,5.30
2018-12-11T16:50:23.538Z,5.30
2018-12-11T16:52:51.140Z,5.30
2018-12-11T16:55:18.875Z,5.30
2018-12-11T16:57:46.465Z,5.30
2018-12-11T17:00:14.878Z,5.30
2018-12-11T17:02:42.483Z,5.30
2018-12-11T17:05:10.110Z,5.30
2018-12-11T17:07:37.973Z,5.30
2018-12-11T17:10:05.938Z,5.30
2018-12-11T17:12:33.542Z,5.30
2018-12-11T17:15:02.527Z,5.30
2018-12-11T17:17:30.253Z,5.30
2018-12-11T17:19:57.782Z,5.30
2018-12-11T17:22:25.355Z,5.30
2018-12-11T17:24:52.886Z,5.30
2018-12-11T17:27:20.438Z,5.30
2018-12-11T17:29:48.024Z,5.30
2018-12-11T17:32:15.554Z,5.30
2018-12-11T17:34:43.089Z,5.30
2018-12-11T17:37:10.674Z,5.30
2018-12-11T17:39:39.128Z,5.30
2018-12-11T17:42:06.669Z,5.30
2018-12-11T17:44:34.251Z,5.30
2018-12-11T17:47:01.783Z,5.30
2018-12-11T17:49:29.357Z,5.30
2018-12-11T17:51:57.036Z,5.30
2018-12-11T17:54:24.695Z,5.30
2018-12-11T17:56:52.267Z,5.30
2018-12-11T17:59:19.840Z,5.30
2018-12-11T18:01:48.786Z,5.20
2018-12-11T18:04:16.354Z,5.20
2018-12-11T18:06:43.922Z,5.10
2018-12-11T18:09:11.784Z,5.10
2018-12-11T18:11:39.767Z,5.00
2018-12-11T18:14:07.343Z,5.00
2018-12-11T18:16:34.873Z,4.90
2018-12-11T18:19:02.429Z,4.90
2018-12-11T18:21:29.994Z,4.90
2018-12-11T18:23:57.513Z,4.90
2018-12-11T18:26:25.105Z,4.90
2018-12-11T18:28:52.674Z,4.90
2018-12-11T18:31:20.218Z,4.90
2018-12-11T18:33:47.746Z,4.90
2018-12-11T18:36:15.309Z,4.90
2018-12-11T18:38:42.834Z,4.90
2018-12-11T18:41:10.699Z,4.90
2018-12-11T18:43:38.418Z,4.90
2018-12-11T18:46:05.997Z,4.90
2018-12-11T18:48:33.563Z,4.90
2018-12-11T18:51:01.142Z,4.90
2018-12-11T18:53:28.692Z,4.90
2018-12-11T18:55:56.242Z,4.90
2018-12-11T18:58:24.794Z,4.80
2018-12-11T19:00:52.611Z,4.80
2018-12-11T19:03:20.138Z,4.80
2018-12-11T19:05:47.747Z,4.80
2018-12-11T19:08:15.279Z,4.80
2018-12-11T19:10:42.818Z,4.80
2018-12-11T19:13:10.937Z,4.80
2018-12-11T19:15:38.719Z,4.80
2018-12-11T19:18:06.335Z,4.80
2018-12-11T19:20:33.931Z,4.80
2018-12-11T19:23:05.412Z,4.80
2018-12-11T19:25:33.028Z,4.80
2018-12-11T19:28:00.587Z,4.80
2018-12-11T19:30:28.260Z,4.80
2018-12-11T19:32:55.850Z,4.80
2018-12-11T19:35:23.412Z,4.80
2018-12-11T19:37:50.966Z,4.70
2018-12-11T19:40:18.552Z,4.70
2018-12-11T19:42:46.086Z,4.70
2018-12-11T19:45:13.614Z,4.70
2018-12-11T19:47:41.190Z,4.70
2018-12-11T19:50:08.778Z,4.70
2018-12-11T19:52:39.818Z,4.70
2018-12-11T19:55:06.347Z,4.80
2018-12-11T19:57:33.914Z,5.20
2018-12-11T20:00:01.615Z,5.50
2018-12-11T20:02:29.312Z,5.70
2018-12-11T20:04:57.157Z,5.70
2018-12-11T20:07:25.269Z,5.70
2018-12-11T20:09:58.538Z,5.50
2018-12-11T20:12:26.508Z,5.30
2018-12-11T20:14:54.111Z,5.20
2018-12-11T20:17:21.975Z,5.10
2018-12-11T20:19:49.567Z,5.00
2018-12-11T20:22:17.547Z,5.00
2018-12-11T20:24:45.194Z,4.90
2018-12-11T20:27:12.726Z,4.90
2018-12-11T20:29:41.532Z,4.90
2018-12-11T20:32:09.258Z,4.80
2018-12-11T20:34:36.813Z,4.80
2018-12-11T20:37:04.347Z,4.80
2018-12-11T20:39:31.930Z,4.80
2018-12-11T20:41:59.467Z,4.80
2018-12-11T20:44:27.017Z,4.70
2018-12-11T20:46:54.704Z,4.70
2018-12-11T20:49:22.289Z,4.60
2018-12-11T20:51:49.899Z,4.50
2018-12-11T20:54:17.546Z,4.50
2018-12-11T20:56:45.097Z,4.40
2018-12-11T20:59:12.932Z,4.40
2018-12-11T21:01:40.930Z,4.40
2018-12-11T21:04:08.487Z,4.40
2018-12-11T21:06:36.018Z,4.40
2018-12-11T21:09:06.461Z,4.40
2018-12-11T21:11:34.009Z,4.40
2018-12-11T21:14:01.922Z,4.30
2018-12-11T21:16:29.535Z,4.30
2018-12-11T21:18:57.241Z,4.30
2018-12-11T21:21:25.599Z,4.30
2018-12-11T21:23:54.105Z,4.30
2018-12-11T21:26:22.645Z,4.30
2018-12-11T21:28:50.958Z,4.30
2018-12-11T21:31:18.556Z,4.30
2018-12-11T21:33:46.091Z,4.30
2018-12-11T21:36:13.619Z,4.30
2018-12-11T21:38:41.194Z,4.20
2018-12-11T21:41:08.731Z,4.20
2018-12-11T21:43:36.262Z,4.20
2018-12-11T21:46:03.908Z,4.10
2018-12-11T21:48:31.451Z,4.10
2018-12-11T21:50:58.988Z,4.00
2018-12-11T21:53:26.576Z,4.00
2018-12-11T21:55:54.186Z,4.00
2018-12-11T21:58:22.032Z,4.00
2018-12-11T22:00:49.611Z,4.00
2018-12-11T22:03:17.331Z,4.00
2018-12-11T22:05:45.045Z,4.00
2018-12-11T22:08:13.169Z,4.00
2018-12-11T22:10:40.715Z,4.00
2018-12-11T22:13:08.251Z,4.00
2018-12-11T22:15:35.826Z,4.00
2018-12-11T22:18:03.372Z,4.00
2018-12-11T22:20:30.935Z,4.00
2018-12-11T22:22:58.534Z,4.00
2018-12-11T22:25:26.078Z,4.00
2018-12-11T22:27:53.611Z,4.00
2018-12-11T22:30:21.188Z,4.00
2018-12-11T22:32:48.742Z,4.00
2018-12-11T22:35:16.281Z,3.90
2018-12-11T22:37:43.857Z,3.90
2018-12-11T22:40:11.406Z,3.90
2018-12-11T22:42:38.938Z,3.90
2018-12-11T22:45:06.591Z,3.80
2018-12-11T22:47:34.135Z,3.80
2018-12-11T22:50:01.670Z,3.80
2018-12-11T22:52:29.246Z,3.70
2018-12-11T22:54:56.778Z,3.70
2018-12-11T22:57:24.321Z,3.70
2018-12-11T22:59:51.898Z,3.70
2018-12-11T23:02:19.533Z,3.70
2018-12-11T23:04:47.077Z,3.70
2018-12-11T23:07:14.655Z,3.60
2018-12-11T23:09:44.154Z,3.60
2018-12-11T23:12:11.770Z,3.60
2018-12-11T23:14:39.405Z,3.50
2018-12-11T23:17:06.943Z,3.60
2018-12-11T23:19:34.486Z,3.50
2018-12-11T23:22:02.059Z,3.50
2018-12-11T23:24:29.595Z,3.50
2018-12-11T23:26:57.134Z,3.50
2018-12-11T23:29:24.716Z,3.50
2018-12-11T23:31:52.245Z,3.50
2018-12-11T23:34:19.770Z,3.50
2018-12-11T23:36:47.342Z,3.50
2018-12-11T23:39:14.881Z,3.50
2018-12-11T23:41:42.405Z,3.60
2018-12-11T23:44:09.978Z,3.60
2018-12-11T23:46:37.587Z,3.70
2018-12-11T23:49:05.393Z,3.70
2018-12-11T23:51:32.963Z,3.80
2018-12-11T23:54:00.490Z,3.80
2018-12-11T23:56:28.029Z,3.80
2018-12-11T23:58:55.603Z,3.80
